createdAt,value
2017-11-03T00:10:12.369Z,15.60
2017-11-03T00:15:15.757Z,16.67
2017-11-03T00:20:19.031Z,16.10
2017-11-03T00:25:21.961Z,16.37
2017-11-03T00:30:25.107Z,14.50
2017-11-03T00:35:28.229Z,15.50
2017-11-03T00:40:32.747Z,14.87
2017-11-03T00:45:36.519Z,16.03
2017-11-03T00:50:39.945Z,15.90
2017-11-03T00:55:43.254Z,16.13
2017-11-03T01:00:47.569Z,16.43
2017-11-03T01:05:52.076Z,15.83
2017-11-03T01:10:56.953Z,14.83
2017-11-03T01:16:01.390Z,17.10
2017-11-03T01:21:04.944Z,17.27
2017-11-03T01:26:08.177Z,18.00
2017-11-03T01:31:12.706Z,16.30
2017-11-03T01:36:15.516Z,17.77
2017-11-03T01:41:19.038Z,14.10
2017-11-03T01:46:23.890Z,17.70
2017-11-03T01:51:27.620Z,16.33
2017-11-03T01:56:31.164Z,15.10
2017-11-03T02:01:35.601Z,15.27
2017-11-03T02:06:39.216Z,17.80
2017-11-03T02:16:53.499Z,16.17
2017-11-03T02:21:56.527Z,18.23
2017-11-03T02:26:59.655Z,16.53
2017-11-03T02:32:04.260Z,17.67
2017-11-03T02:37:07.153Z,16.20
2017-11-03T02:42:11.639Z,16.20
2017-11-03T02:47:15.110Z,18.17
2017-11-03T02:52:21.218Z,17.50
2017-11-03T02:57:24.026Z,18.27
2017-11-03T03:02:27.000Z,17.20
2017-11-03T03:07:31.508Z,17.50
2017-11-03T03:12:34.270Z,16.97
2017-11-03T03:17:37.057Z,18.87
2017-11-03T03:27:48.393Z,18.60
2017-11-03T03:32:51.275Z,17.10
2017-11-03T03:37:55.571Z,17.93
2017-11-03T03:43:00.365Z,19.57
2017-11-03T03:48:05.023Z,17.67
2017-11-03T03:53:07.905Z,16.97
2017-11-03T03:58:11.633Z,17.80
2017-11-03T04:03:16.015Z,18.27
2017-11-03T04:08:21.008Z,17.07
2017-11-03T04:13:27.523Z,16.00
2017-11-03T04:18:31.043Z,18.07
2017-11-03T04:23:34.550Z,15.63
2017-11-03T04:28:38.460Z,17.70
2017-11-03T04:33:44.972Z,16.60
2017-11-03T04:38:48.097Z,19.20
2017-11-03T04:43:51.687Z,18.47
2017-11-03T04:48:54.511Z,15.97
2017-11-03T04:53:57.551Z,17.90
2017-11-03T04:59:00.409Z,18.10
2017-11-03T05:04:06.522Z,18.53
2017-11-03T05:09:09.750Z,17.00
2017-11-03T05:14:12.837Z,17.53
2017-11-03T05:19:16.306Z,17.43
2017-11-03T05:24:20.234Z,17.00
2017-11-03T05:29:24.675Z,18.97
2017-11-03T05:39:34.691Z,17.90
2017-11-03T05:44:38.119Z,18.30
2017-11-03T05:49:41.786Z,17.37
2017-11-03T05:54:44.580Z,19.30
2017-11-03T05:59:47.335Z,17.50
2017-11-03T06:04:50.834Z,16.83
2017-11-03T06:09:55.098Z,15.70
2017-11-03T06:14:58.499Z,16.57
2017-11-03T06:20:02.803Z,16.37
2017-11-03T06:25:06.414Z,17.23
2017-11-03T06:30:10.141Z,17.17
2017-11-03T06:35:14.572Z,17.47
2017-11-03T06:40:18.544Z,18.00
2017-11-03T06:45:22.982Z,17.77
2017-11-03T06:50:25.724Z,16.77
2017-11-03T06:55:29.212Z,18.87
2017-11-03T07:00:32.748Z,17.33
2017-11-03T07:05:37.112Z,17.43
2017-11-03T07:10:40.079Z,17.03
2017-11-03T07:15:43.469Z,16.13
2017-11-03T07:20:50.028Z,18.27
2017-11-03T07:25:54.443Z,18.00
2017-11-03T07:30:57.447Z,18.33
2017-11-03T07:36:00.304Z,19.20
2017-11-03T07:41:04.691Z,18.67
2017-11-03T07:46:07.670Z,21.33
2017-11-03T07:51:11.364Z,22.13
2017-11-03T07:56:14.366Z,21.40
2017-11-03T08:01:17.948Z,20.40
2017-11-03T08:06:21.321Z,21.30
2017-11-03T08:11:24.427Z,20.60
2017-11-03T08:16:27.452Z,21.63
2017-11-03T08:21:30.365Z,21.30
2017-11-03T08:26:33.329Z,23.47
2017-11-03T08:31:39.776Z,23.00
2017-11-03T08:36:42.561Z,22.13
2017-11-03T08:41:45.744Z,23.10
2017-11-03T08:46:48.912Z,22.93
2017-11-03T08:51:53.261Z,20.70
2017-11-03T08:56:56.759Z,19.37
2017-11-03T09:02:00.379Z,22.90
2017-11-03T09:07:04.841Z,21.77
2017-11-03T09:12:08.285Z,24.00
2017-11-03T09:17:12.684Z,22.17
2017-11-03T09:22:18.656Z,23.47
2017-11-03T09:27:21.468Z,23.00
2017-11-03T09:32:24.557Z,24.07
2017-11-03T09:37:28.857Z,22.30
2017-11-03T09:42:32.124Z,24.53
2017-11-03T09:47:35.051Z,19.93
2017-11-03T09:52:38.496Z,23.50
2017-11-03T09:57:41.657Z,24.87
2017-11-03T10:02:44.220Z,23.43
2017-11-03T10:07:46.815Z,23.77
2017-11-03T10:12:49.390Z,22.50
2017-11-03T10:17:51.982Z,25.00
2017-11-03T10:22:54.595Z,21.03
2017-11-03T10:27:57.171Z,21.70
2017-11-03T10:33:00.519Z,20.70
2017-11-03T10:38:03.883Z,20.27
2017-11-03T10:43:06.437Z,20.70
2017-11-03T10:48:09.020Z,21.77
2017-11-03T10:53:12.374Z,22.03
2017-11-03T10:58:14.963Z,20.27
2017-11-03T11:03:17.539Z,21.03
2017-11-03T11:08:20.112Z,23.13
2017-11-03T11:13:22.679Z,19.60
2017-11-03T11:18:25.259Z,19.60
2017-11-03T11:23:27.860Z,16.80
2017-11-03T11:28:30.462Z,18.13
2017-11-03T11:33:33.804Z,18.30
2017-11-03T11:38:36.399Z,16.60
2017-11-03T11:43:39.064Z,17.80
2017-11-03T11:48:41.639Z,17.03
2017-11-03T11:53:44.572Z,17.53
2017-11-03T11:58:47.163Z,15.30
2017-11-03T12:03:49.775Z,16.03
2017-11-03T12:08:52.347Z,15.40
2017-11-03T12:13:54.923Z,16.93
2017-11-03T12:18:57.509Z,18.13
2017-11-03T12:24:00.068Z,16.83
2017-11-03T12:29:02.644Z,16.00
2017-11-03T12:34:05.250Z,15.83
2017-11-03T12:39:07.834Z,15.63
2017-11-03T12:44:10.412Z,18.07
2017-11-03T12:49:12.990Z,19.33
2017-11-03T12:54:15.575Z,19.90
2017-11-03T12:59:18.141Z,19.80
2017-11-03T13:04:20.704Z,19.30
2017-11-03T13:09:23.279Z,18.60
2017-11-03T13:14:25.886Z,19.10
2017-11-03T13:19:28.466Z,17.43
2017-11-03T13:24:31.041Z,16.53
2017-11-03T13:29:33.646Z,16.27
2017-11-03T13:34:36.228Z,17.80
2017-11-03T13:39:38.801Z,16.50
2017-11-03T13:44:41.351Z,17.57
2017-11-03T13:49:43.943Z,17.10
2017-11-03T13:54:46.535Z,16.03
2017-11-03T13:59:49.119Z,15.90
2017-11-03T14:04:51.682Z,15.93
2017-11-03T14:09:55.022Z,15.47
2017-11-03T14:14:57.599Z,16.60
2017-11-03T14:20:00.165Z,14.87
2017-11-03T14:25:02.743Z,15.27
2017-11-03T14:30:05.405Z,16.37
2017-11-03T14:35:07.984Z,15.63
2017-11-03T14:40:10.540Z,14.90
2017-11-03T14:45:13.107Z,15.33
2017-11-03T14:50:15.667Z,15.57
2017-11-03T14:55:18.516Z,16.90
2017-11-03T15:00:21.115Z,15.37
2017-11-03T15:05:23.692Z,15.27
2017-11-03T15:10:26.276Z,15.60
2017-11-03T15:15:28.843Z,17.03
2017-11-03T15:20:31.429Z,15.37
2017-11-03T15:25:34.758Z,15.80
2017-11-03T15:30:37.364Z,16.87
2017-11-03T15:35:39.979Z,17.03
2017-11-03T15:40:42.626Z,16.23
2017-11-03T15:45:45.215Z,15.90
2017-11-03T15:50:47.782Z,16.10
2017-11-03T15:55:50.359Z,17.03
2017-11-03T16:00:52.947Z,16.07
2017-11-03T16:05:55.560Z,18.07
2017-11-03T16:10:58.149Z,17.87
2017-11-03T16:16:00.723Z,16.30
2017-11-03T16:21:04.069Z,15.33
2017-11-03T16:26:07.407Z,16.03
2017-11-03T16:31:09.993Z,15.17
2017-11-03T16:36:12.599Z,15.10
2017-11-03T16:41:15.179Z,16.70
2017-11-03T16:46:17.808Z,15.80
2017-11-03T16:51:20.400Z,14.47
2017-11-03T16:56:22.988Z,13.77
2017-11-03T17:01:25.669Z,17.27
2017-11-03T17:06:28.246Z,15.87
2017-11-03T17:11:30.870Z,15.20
2017-11-03T17:16:33.427Z,14.97
2017-11-03T17:21:36.009Z,15.73
2017-11-03T17:26:38.591Z,15.63
2017-11-03T17:31:41.181Z,17.63
2017-11-03T17:36:43.784Z,16.57
2017-11-03T17:41:47.348Z,17.30
2017-11-03T17:46:49.937Z,17.40
2017-11-03T17:51:52.501Z,16.70
2017-11-03T17:56:55.065Z,16.50
2017-11-03T18:01:57.632Z,16.40
2017-11-03T18:07:00.230Z,15.17
2017-11-03T18:12:03.664Z,15.37
2017-11-03T18:17:06.221Z,16.17
2017-11-03T18:22:09.914Z,15.17
2017-11-03T18:27:12.501Z,16.20
2017-11-03T18:32:15.112Z,16.30
2017-11-03T18:37:17.704Z,17.27
2017-11-03T18:42:20.380Z,17.37
2017-11-03T18:47:22.956Z,18.10
2017-11-03T18:52:26.427Z,17.57
2017-11-03T18:57:29.059Z,17.57
2017-11-03T19:02:31.645Z,16.77
2017-11-03T19:07:34.287Z,16.87
2017-11-03T19:12:37.661Z,17.73
2017-11-03T19:17:40.285Z,17.77
2017-11-03T19:22:43.625Z,27.57
2017-11-03T19:27:46.191Z,19.77
2017-11-03T19:32:48.820Z,15.37
2017-11-03T19:37:52.702Z,16.97
2017-11-03T19:42:55.283Z,17.47
2017-11-03T19:47:57.866Z,17.00
2017-11-03T19:53:01.152Z,17.30
2017-11-03T19:58:03.796Z,19.77
2017-11-03T20:03:06.815Z,17.50
2017-11-03T20:08:10.349Z,20.20
2017-11-03T20:13:13.006Z,18.53
2017-11-03T20:18:15.587Z,19.63
2017-11-03T20:23:18.286Z,17.47
2017-11-03T20:28:20.896Z,17.30
2017-11-03T20:33:23.490Z,16.33
2017-11-03T20:38:26.072Z,16.17
2017-11-03T20:43:28.705Z,18.70
2017-11-03T20:48:31.305Z,16.90
2017-11-03T20:53:34.728Z,17.10
2017-11-03T20:58:37.370Z,17.23
2017-11-03T21:03:39.962Z,17.27
2017-11-03T21:08:42.665Z,18.57
2017-11-03T21:13:45.296Z,16.60
2017-11-03T21:18:47.890Z,16.53
2017-11-03T21:23:50.550Z,16.20
2017-11-03T21:28:53.163Z,15.63
2017-11-03T21:33:55.718Z,17.03
2017-11-03T21:38:58.276Z,16.03
2017-11-03T21:44:00.862Z,16.10
2017-11-03T21:49:03.430Z,15.23
2017-11-03T21:54:06.758Z,15.80
2017-11-03T21:59:10.120Z,14.53
2017-11-03T22:04:13.444Z,14.77
2017-11-03T22:09:16.036Z,15.20
2017-11-03T22:14:18.718Z,13.90
2017-11-03T22:19:21.309Z,17.13
2017-11-03T22:24:23.879Z,15.30
2017-11-03T22:29:26.444Z,13.33
2017-11-03T22:34:29.007Z,16.13
2017-11-03T22:39:31.573Z,16.70
2017-11-03T22:44:34.131Z,15.67
2017-11-03T22:49:36.704Z,16.07
2017-11-03T22:54:40.951Z,15.80
2017-11-03T22:59:43.529Z,16.30
2017-11-03T23:04:46.109Z,13.87
2017-11-03T23:09:48.660Z,14.47
2017-11-03T23:14:51.228Z,15.03
2017-11-03T23:19:54.569Z,14.20
2017-11-03T23:24:57.154Z,17.80
2017-11-03T23:30:00.476Z,14.90
2017-11-03T23:35:03.038Z,17.00
2017-11-03T23:40:05.627Z,18.70
2017-11-03T23:45:09.047Z,17.00
2017-11-03T23:50:11.636Z,14.70
2017-11-03T23:55:14.217Z,17.07
